This is the latest recevied weather packets stored in our database for station/object DH1FR-13. If no packets are shown the sender has not sent any weather packets the latest 10 day(s).
| Time | Temp. | Humidity | Pressure | Rain* | Wind** | Luminosity | Snow |
|---|---|---|---|---|---|---|---|
| 1787946001 | 17.78° C | 91% | 1014.5 hPa | 9.4 mm | 0 m/s | - | - |
| 1787945400 | 17.78° C | 91% | 1014.6 hPa | 9.4 mm | 0 m/s | - | - |
| 1787944801 | 17.78° C | 90% | 1014.5 hPa | 9.4 mm | 0 m/s | - | - |
| 1787944200 | 18.33° C | 89% | 1014.6 hPa | 9.4 mm | 0 m/s | - | - |
| 1787943600 | 18.33° C | 88% | 1014.2 hPa | 9.4 mm | 0 m/s | - | - |
| 1787943000 | 18.89° C | 87% | 1014 hPa | 9.4 mm | 0 m/s | - | - |
| 1787942400 | 18.89° C | 86% | 1014 hPa | 9.4 mm | 0 m/s | - | - |
| 1787941800 | 18.89° C | 86% | 1013.8 hPa | 9.4 mm | 0 m/s | - | - |
| 1787941201 | 19.44° C | 85% | 1014 hPa | 9.4 mm | 0 m/s | - | - |
| 1787940601 | 20° C | 82% | 1013.6 hPa | 9.4 mm | 0 m/s | - | - |
| 1787940000 | 20.56° C | 82% | 1013.8 hPa | 9.4 mm | 0 m/s | - | - |
| 1787939401 | 20.56° C | 79% | 1013.5 hPa | 9.4 mm | 0 m/s | - | - |
| 1787938800 | 21.11° C | 78% | 1013.8 hPa | 9.4 mm | 0 m/s | - | - |
| 1787938201 | 21.11° C | 79% | 1013.5 hPa | 9.4 mm | 0 m/s | - | - |
| 1787937600 | 21.67° C | 77% | 1013.5 hPa | 9.4 mm | 0 m/s | - | - |
| 1787937000 | 22.22° C | 76% | 1013.6 hPa | 9.4 mm | 0 m/s | - | - |
| 1787936400 | 22.78° C | 78% | 1013.7 hPa | 9.4 mm | 0 m/s | - | - |
| 1787935800 | 21.67° C | 81% | 1013.6 hPa | 9.4 mm | 0 m/s | - | - |
| 1787935200 | 21.67° C | 81% | 1013.5 hPa | 9.4 mm | 0 m/s | - | - |
| 1787934600 | 21.67° C | 80% | 1013.5 hPa | 9.4 mm | 0 m/s | - | - |
| 1787934001 | 22.78° C | 78% | 1013 hPa | 9.4 mm | 0 m/s | - | - |
| 1787933401 | 22.22° C | 83% | 1012.9 hPa | 9.4 mm | 0 m/s | - | - |
| 1787932800 | 21.67° C | 85% | 1012.8 hPa | 9.4 mm | 0 m/s | - | - |
| 1787932201 | 21.67° C | 88% | 1013.5 hPa | 9.4 mm | 0 m/s | - | - |
| 1787931600 | 20.56° C | 93% | 1013.5 hPa | 9.4 mm | 0 m/s | - | - |
* Rain latest hour (hover to see other rain measurements)
** Current wind speed in m/s (hover to see current wind gust speed)